Terminal Aerodrome Forecast
Issued by NWS Los Angeles, CA

Home | Current Version | Previous Version | Text Only | Print | Product List | Glossary On
Versions: 1 2 3 4 5 6 7 8 9 10 11 12 13 14 15 16 17 18 19 20 21 22 23 24
000
FTUS46 KLOX 041136
TAFSMX
TAF
KSMX 041136Z 0412/0512 VRB03KT P6SM BKN016
     FM041600 VRB03KT P6SM SCT200
     FM041900 30015G22KT P6SM BKN200
     FM050300 31012KT P6SM BKN200
     FM050700 31006KT P6SM BKN012 BKN200
     FM051000 VRB03KT P6SM OVC015=

USA.gov is the U.S. government's official web portal to all federal, state and local government web resources and services.